createdAt,value
2022-09-11T00:01:36.653Z,14.21
2022-09-11T00:04:04.766Z,14.23
2022-09-11T00:06:32.855Z,14.37
2022-09-11T00:09:02.956Z,14.66
2022-09-11T00:11:34.488Z,14.79
2022-09-11T00:14:02.435Z,14.88
2022-09-11T00:16:31.487Z,15.13
2022-09-11T00:19:02.272Z,15.16
2022-09-11T00:21:30.403Z,15.15
2022-09-11T00:23:58.067Z,15.00
2022-09-11T00:26:26.256Z,14.86
2022-09-11T00:28:55.277Z,14.90
2022-09-11T00:31:28.455Z,14.97
2022-09-11T00:33:56.748Z,14.98
2022-09-11T00:36:27.927Z,15.04
2022-09-11T00:38:56.524Z,14.96
2022-09-11T00:41:31.849Z,14.97
2022-09-11T00:44:02.755Z,14.82
2022-09-11T00:46:51.886Z,14.85
2022-09-11T00:49:30.620Z,14.73
2022-09-11T00:52:07.477Z,14.85
2022-09-11T00:54:41.700Z,14.82
2022-09-11T00:57:09.811Z,14.76
2022-09-11T00:59:41.837Z,14.75
2022-09-11T01:02:15.912Z,14.79
2022-09-11T01:04:43.987Z,14.56
2022-09-11T01:07:13.821Z,14.49
2022-09-11T01:09:42.939Z,14.44
2022-09-11T01:12:18.549Z,14.53
2022-09-11T01:15:03.650Z,14.41
2022-09-11T01:17:46.812Z,14.55
2022-09-11T01:20:32.219Z,14.63
2022-09-11T01:23:12.670Z,14.71
2022-09-11T01:25:58.515Z,14.68
2022-09-11T01:28:59.905Z,14.72
2022-09-11T01:31:34.013Z,14.86
2022-09-11T01:34:15.852Z,14.82
2022-09-11T01:36:53.842Z,14.67
2022-09-11T01:39:29.649Z,14.72
2022-09-11T01:42:03.283Z,14.64
2022-09-11T01:44:36.894Z,14.82
2022-09-11T01:47:13.466Z,14.86
2022-09-11T01:49:44.057Z,14.92
2022-09-11T01:52:18.266Z,14.96
2022-09-11T01:55:01.302Z,15.03
2022-09-11T01:57:39.016Z,14.98
2022-09-11T02:00:10.870Z,15.04
2022-09-11T02:02:49.802Z,15.07
2022-09-11T02:05:23.617Z,14.99
2022-09-11T02:07:58.411Z,15.02
2022-09-11T02:10:33.091Z,14.97
2022-09-11T02:13:20.673Z,14.96
2022-09-11T02:15:53.637Z,15.01
2022-09-11T02:18:31.093Z,14.96
2022-09-11T02:20:58.643Z,14.82
2022-09-11T02:23:30.056Z,14.91
2022-09-11T02:25:57.630Z,14.90
2022-09-11T02:28:25.502Z,14.96
2022-09-11T02:30:53.932Z,15.07
2022-09-11T02:33:36.030Z,14.83
2022-09-11T02:36:32.222Z,14.89
2022-09-11T02:39:11.795Z,14.86
2022-09-11T02:42:12.516Z,14.86
2022-09-11T02:45:18.157Z,14.86
2022-09-11T02:48:10.430Z,15.18
2022-09-11T02:50:44.380Z,15.28
2022-09-11T02:53:26.616Z,15.14
2022-09-11T02:56:16.885Z,15.11
2022-09-11T02:58:55.341Z,15.23
2022-09-11T03:01:24.199Z,14.93
2022-09-11T03:03:52.570Z,15.05
2022-09-11T03:06:23.114Z,15.08
2022-09-11T03:08:54.425Z,15.13
2022-09-11T03:11:22.340Z,15.09
2022-09-11T03:13:50.780Z,15.17
2022-09-11T03:16:20.345Z,15.13
2022-09-11T03:18:47.970Z,15.04
2022-09-11T03:21:16.831Z,15.04
2022-09-11T03:23:44.733Z,14.90
2022-09-11T03:26:12.316Z,14.86
2022-09-11T03:28:40.064Z,14.83
2022-09-11T03:31:09.533Z,14.60
2022-09-11T03:33:37.564Z,14.82
2022-09-11T03:36:05.803Z,14.69
2022-09-11T03:38:33.351Z,14.76
2022-09-11T03:41:03.388Z,14.64
2022-09-11T03:43:33.328Z,14.63
2022-09-11T03:46:01.068Z,14.85
2022-09-11T03:48:29.268Z,14.78
2022-09-11T03:50:58.910Z,14.57
2022-09-11T03:53:26.813Z,14.66
2022-09-11T03:55:54.864Z,14.62
2022-09-11T03:58:22.560Z,14.71
2022-09-11T04:00:50.125Z,14.50
2022-09-11T04:03:18.103Z,14.47
2022-09-11T04:05:57.950Z,14.50
2022-09-11T04:08:26.054Z,14.42
2022-09-11T04:11:06.749Z,14.44
2022-09-11T04:13:38.884Z,14.48
2022-09-11T04:16:13.047Z,14.45
2022-09-11T04:18:45.890Z,14.43
2022-09-11T04:21:16.857Z,14.35
2022-09-11T04:23:51.594Z,14.38
2022-09-11T04:26:20.701Z,14.37
2022-09-11T04:28:52.731Z,14.40
2022-09-11T04:31:21.939Z,14.40
2022-09-11T04:33:49.956Z,14.38
2022-09-11T04:36:19.261Z,14.29
2022-09-11T04:38:50.665Z,14.44
2022-09-11T04:41:19.257Z,14.63
2022-09-11T04:43:47.411Z,14.63
2022-09-11T04:46:17.746Z,14.51
2022-09-11T04:48:47.381Z,14.46
2022-09-11T04:51:29.167Z,14.47
2022-09-11T04:53:59.071Z,14.48
2022-09-11T04:56:34.323Z,14.82
2022-09-11T04:59:13.358Z,14.83
2022-09-11T05:01:44.359Z,15.03
2022-09-11T05:04:13.489Z,15.29
2022-09-11T05:06:48.304Z,15.39
2022-09-11T05:09:18.451Z,15.53
2022-09-11T05:11:48.175Z,15.48
2022-09-11T05:14:18.471Z,15.41
2022-09-11T05:16:48.316Z,15.48
2022-09-11T05:19:20.046Z,15.59
2022-09-11T05:21:48.219Z,15.69
2022-09-11T05:24:16.448Z,15.78
2022-09-11T05:26:44.179Z,15.89
2022-09-11T05:29:15.547Z,15.94
2022-09-11T05:31:48.377Z,15.97
2022-09-11T05:34:21.218Z,15.89
2022-09-11T05:36:50.158Z,15.93
2022-09-11T05:39:18.456Z,16.17
2022-09-11T05:41:46.015Z,16.26
2022-09-11T05:44:14.058Z,16.16
2022-09-11T05:46:41.871Z,16.46
2022-09-11T05:49:09.409Z,16.79
2022-09-11T05:51:38.121Z,16.51
2022-09-11T05:54:06.755Z,16.83
2022-09-11T05:56:35.117Z,17.24
2022-09-11T05:59:14.304Z,17.55
2022-09-11T06:01:43.273Z,17.72
2022-09-11T06:04:20.938Z,18.10
2022-09-11T06:06:51.683Z,18.28
2022-09-11T06:09:19.951Z,18.33
2022-09-11T06:11:47.789Z,17.99
2022-09-11T06:14:15.529Z,18.10
2022-09-11T06:16:45.087Z,18.21
2022-09-11T06:19:16.813Z,18.35
2022-09-11T06:21:45.499Z,18.64
2022-09-11T06:24:42.263Z,18.57
2022-09-11T06:27:10.211Z,18.63
2022-09-11T06:29:42.095Z,18.85
2022-09-11T06:32:10.002Z,18.65
2022-09-11T06:34:39.709Z,18.81
2022-09-11T06:37:10.777Z,19.65
2022-09-11T06:39:38.537Z,19.85
2022-09-11T06:42:07.685Z,19.93
2022-09-11T06:44:37.428Z,19.74
2022-09-11T06:47:06.660Z,19.90
2022-09-11T06:49:36.089Z,19.48
2022-09-11T06:52:21.787Z,19.60
2022-09-11T06:55:02.278Z,19.18
2022-09-11T06:57:30.793Z,19.68
2022-09-11T06:59:58.601Z,19.52
2022-09-11T07:02:26.981Z,19.45
2022-09-11T07:04:55.545Z,20.19
2022-09-11T07:07:26.274Z,20.18
2022-09-11T07:09:53.837Z,20.58
2022-09-11T07:12:24.005Z,20.53
2022-09-11T07:14:51.932Z,20.63
2022-09-11T07:17:19.759Z,20.83
2022-09-11T07:19:50.616Z,20.83
2022-09-11T07:22:19.757Z,21.13
2022-09-11T07:24:48.572Z,21.42
2022-09-11T07:27:16.752Z,21.09
2022-09-11T07:29:44.273Z,20.55
2022-09-11T07:32:11.786Z,20.32
2022-09-11T07:34:40.551Z,20.20
2022-09-11T07:37:10.868Z,20.55
2022-09-11T07:39:40.619Z,20.97
2022-09-11T07:42:14.752Z,20.44
2022-09-11T07:44:43.183Z,20.81
2022-09-11T07:47:12.931Z,21.26
2022-09-11T07:49:48.092Z,22.20
2022-09-11T07:52:16.993Z,21.94
2022-09-11T07:54:51.033Z,21.76
2022-09-11T07:57:19.461Z,21.47
2022-09-11T07:59:47.744Z,20.57
2022-09-11T08:02:18.102Z,20.67
2022-09-11T08:04:45.635Z,21.26
2022-09-11T08:07:13.808Z,20.63
2022-09-11T08:09:41.538Z,21.17
2022-09-11T08:12:10.839Z,22.81
2022-09-11T08:14:39.998Z,23.37
2022-09-11T08:17:16.651Z,22.47
2022-09-11T08:19:44.160Z,22.58
2022-09-11T08:22:14.086Z,22.35
2022-09-11T08:24:45.171Z,22.28
2022-09-11T08:27:16.041Z,21.56
2022-09-11T08:29:44.176Z,21.44
2022-09-11T08:32:13.353Z,21.12
2022-09-11T08:34:44.315Z,22.96
2022-09-11T08:37:11.987Z,23.82
2022-09-11T08:39:39.825Z,24.87
2022-09-11T08:42:15.111Z,25.93
2022-09-11T08:44:50.471Z,25.73
2022-09-11T08:47:39.654Z,25.71
2022-09-11T08:50:23.773Z,24.94
2022-09-11T08:52:54.192Z,23.61
2022-09-11T08:55:55.664Z,23.67
2022-09-11T08:58:46.108Z,24.21
2022-09-11T09:01:37.148Z,24.01
2022-09-11T09:04:24.277Z,23.97
2022-09-11T09:07:05.777Z,24.44
2022-09-11T09:10:14.376Z,23.56
2022-09-11T09:12:51.283Z,24.42
2022-09-11T09:15:32.594Z,24.49
2022-09-11T09:18:15.015Z,25.08
2022-09-11T09:21:02.106Z,24.03
2022-09-11T09:23:38.518Z,23.97
2022-09-11T09:26:15.737Z,23.50
2022-09-11T09:28:50.582Z,24.65
2022-09-11T09:31:21.996Z,24.22
2022-09-11T09:34:05.945Z,25.13
2022-09-11T09:36:46.265Z,24.89
2022-09-11T09:39:16.577Z,24.96
2022-09-11T09:42:08.444Z,25.13
2022-09-11T09:45:13.567Z,25.96
2022-09-11T09:47:44.602Z,28.35
2022-09-11T09:50:17.450Z,29.62
2022-09-11T09:52:45.591Z,31.14
2022-09-11T09:55:20.496Z,29.50
2022-09-11T09:57:48.251Z,29.13
2022-09-11T10:00:19.948Z,27.57
2022-09-11T10:02:58.593Z,26.12
2022-09-11T10:05:32.040Z,26.06
2022-09-11T10:08:03.849Z,26.63
2022-09-11T10:10:36.789Z,27.04
2022-09-11T10:13:28.461Z,28.95
2022-09-11T10:15:59.761Z,28.03
2022-09-11T10:18:33.278Z,26.87
2022-09-11T10:21:12.599Z,25.60
2022-09-11T10:23:47.259Z,24.90
2022-09-11T10:26:18.006Z,24.56
2022-09-11T10:28:46.909Z,23.69
2022-09-11T10:31:18.842Z,23.19
2022-09-11T10:33:51.501Z,23.07
2022-09-11T10:36:24.555Z,23.29
2022-09-11T10:38:52.978Z,23.32
2022-09-11T10:41:26.127Z,23.56
2022-09-11T10:43:56.134Z,24.34
2022-09-11T10:46:44.040Z,24.83
2022-09-11T10:49:11.529Z,24.83
2022-09-11T10:51:45.415Z,24.41
2022-09-11T10:54:23.075Z,27.93
2022-09-11T10:57:06.492Z,31.60
2022-09-11T10:59:40.868Z,30.61
2022-09-11T11:02:20.862Z,28.47
2022-09-11T11:04:48.962Z,27.04
2022-09-11T11:07:40.395Z,25.17
2022-09-11T11:10:36.397Z,24.69
2022-09-11T11:13:22.919Z,23.98
2022-09-11T11:15:59.500Z,25.92
2022-09-11T11:18:41.646Z,24.54
2022-09-11T11:21:23.356Z,24.21
2022-09-11T11:23:51.858Z,23.77
2022-09-11T11:26:44.113Z,23.12
2022-09-11T11:29:18.467Z,23.09
2022-09-11T11:31:55.702Z,22.84
2022-09-11T11:34:46.964Z,23.31
2022-09-11T11:37:20.495Z,23.17
2022-09-11T11:40:10.477Z,24.51
2022-09-11T11:42:46.763Z,25.22
2022-09-11T11:45:32.203Z,25.70
2022-09-11T11:48:11.253Z,28.04
2022-09-11T11:50:46.212Z,27.80
2022-09-11T11:53:35.283Z,25.59
2022-09-11T11:56:14.848Z,25.81
2022-09-11T11:59:19.567Z,25.19
2022-09-11T12:01:54.707Z,24.92
2022-09-11T12:04:34.264Z,23.97
2022-09-11T12:07:04.136Z,23.88
2022-09-11T12:09:33.818Z,23.20
2022-09-11T12:12:07.223Z,23.10
2022-09-11T12:14:35.200Z,21.95
2022-09-11T12:17:25.325Z,21.84
2022-09-11T12:20:10.916Z,21.67
2022-09-11T12:22:47.410Z,21.48
2022-09-11T12:25:21.092Z,22.44
2022-09-11T12:28:11.014Z,23.92
2022-09-11T12:31:05.057Z,25.18
2022-09-11T12:33:41.445Z,25.55
2022-09-11T12:36:13.183Z,28.48
2022-09-11T12:38:50.248Z,30.30
2022-09-11T12:41:34.286Z,30.45
2022-09-11T12:44:03.935Z,29.32
2022-09-11T12:46:31.378Z,27.65
2022-09-11T12:49:22.667Z,25.40
2022-09-11T12:51:52.929Z,25.22
2022-09-11T12:54:39.533Z,25.48
2022-09-11T12:57:25.930Z,26.16
2022-09-11T12:59:59.369Z,26.17
2022-09-11T13:02:43.956Z,25.05
2022-09-11T13:05:25.801Z,26.31
2022-09-11T13:08:00.320Z,28.59
2022-09-11T13:10:33.334Z,28.76
2022-09-11T13:13:07.303Z,25.97
2022-09-11T13:15:44.711Z,29.56
2022-09-11T13:18:25.502Z,32.30
2022-09-11T13:21:01.507Z,29.99
2022-09-11T13:23:29.349Z,31.75
2022-09-11T13:25:58.258Z,31.24
2022-09-11T13:28:28.951Z,29.07
2022-09-11T13:31:03.323Z,29.58
2022-09-11T13:33:32.546Z,31.06
2022-09-11T13:36:02.779Z,30.49
2022-09-11T13:38:36.609Z,30.45
2022-09-11T13:41:13.175Z,30.03
2022-09-11T13:43:45.109Z,30.60
2022-09-11T13:46:15.886Z,30.34
2022-09-11T13:48:44.912Z,30.80
2022-09-11T13:51:19.023Z,31.42
2022-09-11T13:53:53.973Z,29.42
2022-09-11T13:56:51.106Z,30.51
2022-09-11T13:59:50.420Z,29.91
2022-09-11T14:02:21.067Z,28.93
2022-09-11T14:04:52.242Z,28.52
2022-09-11T14:07:26.486Z,29.08
2022-09-11T14:10:19.887Z,27.96
2022-09-11T14:12:57.434Z,28.63
2022-09-11T14:15:51.980Z,29.51
2022-09-11T14:18:24.290Z,28.74
2022-09-11T14:20:53.473Z,28.02
2022-09-11T14:23:25.095Z,28.18
2022-09-11T14:26:06.084Z,27.90
2022-09-11T14:28:43.232Z,27.94
2022-09-11T14:31:13.977Z,28.50
2022-09-11T14:33:41.917Z,28.55
2022-09-11T14:36:20.183Z,26.10
2022-09-11T14:38:48.094Z,25.17
2022-09-11T14:41:15.620Z,24.08
2022-09-11T14:43:45.619Z,26.43
2022-09-11T14:46:16.681Z,27.05
2022-09-11T14:48:44.272Z,25.18
2022-09-11T14:51:13.669Z,27.60
2022-09-11T14:53:43.433Z,28.94
2022-09-11T14:56:11.212Z,26.15
2022-09-11T14:58:38.701Z,27.31
2022-09-11T15:01:06.199Z,28.69
2022-09-11T15:03:33.805Z,25.95
2022-09-11T15:06:01.416Z,25.15
2022-09-11T15:08:28.904Z,23.79
2022-09-11T15:10:56.355Z,24.02
2022-09-11T15:13:23.832Z,23.79
2022-09-11T15:15:53.162Z,24.97
2022-09-11T15:18:20.784Z,24.38
2022-09-11T15:20:49.227Z,22.95
2022-09-11T15:23:16.847Z,22.95
2022-09-11T15:25:44.390Z,22.54
2022-09-11T15:28:12.683Z,22.47
2022-09-11T15:30:57.341Z,22.54
2022-09-11T15:33:27.296Z,22.74
2022-09-11T15:36:00.865Z,22.33
2022-09-11T15:38:28.803Z,21.80
2022-09-11T15:40:56.944Z,21.94
2022-09-11T15:43:25.349Z,21.37
2022-09-11T15:45:52.896Z,21.29
2022-09-11T15:48:21.388Z,20.89
2022-09-11T15:50:59.363Z,20.47
2022-09-11T15:53:31.310Z,20.59
2022-09-11T15:56:07.875Z,20.42
2022-09-11T15:59:01.186Z,20.35
2022-09-11T16:01:34.540Z,20.22
2022-09-11T16:04:07.249Z,20.05
2022-09-11T16:06:39.013Z,20.08
2022-09-11T16:09:10.539Z,19.70
2022-09-11T16:11:39.882Z,19.60
2022-09-11T16:14:15.489Z,19.53
2022-09-11T16:16:44.688Z,19.45
2022-09-11T16:19:18.636Z,19.21
2022-09-11T16:21:47.617Z,19.14
2022-09-11T16:24:15.730Z,19.03
2022-09-11T16:26:44.717Z,18.96
2022-09-11T16:29:18.118Z,18.80
2022-09-11T16:31:45.919Z,18.79
2022-09-11T16:34:15.102Z,18.68
2022-09-11T16:36:42.630Z,18.48
2022-09-11T16:39:16.028Z,18.57
2022-09-11T16:41:44.538Z,18.49
2022-09-11T16:44:15.025Z,18.22
2022-09-11T16:46:46.167Z,18.27
2022-09-11T16:49:20.906Z,18.18
2022-09-11T16:51:49.205Z,17.98
2022-09-11T16:54:17.161Z,17.99
2022-09-11T16:56:46.188Z,17.78
2022-09-11T16:59:15.659Z,17.96
2022-09-11T17:01:43.398Z,17.68
2022-09-11T17:04:11.936Z,17.63
2022-09-11T17:06:40.853Z,17.60
2022-09-11T17:09:08.640Z,17.61
2022-09-11T17:11:37.439Z,17.36
2022-09-11T17:14:05.424Z,17.50
2022-09-11T17:16:35.974Z,17.39
2022-09-11T17:19:03.875Z,17.33
2022-09-11T17:21:38.373Z,17.27
2022-09-11T17:24:07.548Z,17.30
2022-09-11T17:26:37.141Z,17.12
2022-09-11T17:29:05.537Z,17.18
2022-09-11T17:31:33.361Z,17.17
2022-09-11T17:34:00.996Z,17.06
2022-09-11T17:36:28.662Z,17.08
2022-09-11T17:38:59.853Z,17.07
2022-09-11T17:41:27.512Z,17.22
2022-09-11T17:43:56.008Z,17.12
2022-09-11T17:46:24.118Z,17.02
2022-09-11T17:48:51.744Z,17.09
2022-09-11T17:51:25.106Z,17.23
2022-09-11T17:53:56.726Z,17.08
2022-09-11T17:56:28.150Z,17.13
2022-09-11T17:58:58.267Z,17.16
2022-09-11T18:01:27.632Z,17.29
2022-09-11T18:03:59.086Z,17.15
2022-09-11T18:06:27.822Z,17.09
2022-09-11T18:09:00.333Z,17.22
2022-09-11T18:11:29.919Z,17.12
2022-09-11T18:14:00.448Z,17.08
2022-09-11T18:16:28.202Z,17.18
2022-09-11T18:18:56.701Z,17.12
2022-09-11T18:21:26.161Z,17.05
2022-09-11T18:23:54.843Z,17.01
2022-09-11T18:26:27.436Z,16.98
2022-09-11T18:29:00.835Z,16.88
2022-09-11T18:31:31.313Z,16.68
2022-09-11T18:34:00.717Z,16.69
2022-09-11T18:36:30.876Z,16.62
2022-09-11T18:39:03.834Z,16.71
2022-09-11T18:41:33.282Z,16.78
2022-09-11T18:44:04.095Z,16.74
2022-09-11T18:46:31.827Z,16.65
2022-09-11T18:48:59.996Z,16.52
2022-09-11T18:51:27.908Z,16.56
2022-09-11T18:53:56.059Z,16.54
2022-09-11T18:56:28.499Z,16.40
2022-09-11T18:58:56.430Z,16.27
2022-09-11T19:01:26.552Z,16.29
2022-09-11T19:03:55.442Z,16.29
2022-09-11T19:06:25.231Z,16.28
2022-09-11T19:08:54.771Z,16.21
2022-09-11T19:11:28.613Z,16.20
2022-09-11T19:14:01.996Z,16.18
2022-09-11T19:16:29.601Z,16.19
2022-09-11T19:18:57.190Z,16.07
2022-09-11T19:21:26.420Z,16.23
2022-09-11T19:23:57.689Z,16.16
2022-09-11T19:26:34.979Z,16.16
2022-09-11T19:29:02.684Z,16.09
2022-09-11T19:31:30.436Z,16.08
2022-09-11T19:34:02.830Z,16.16
2022-09-11T19:36:32.730Z,16.18
2022-09-11T19:39:00.881Z,16.19
2022-09-11T19:41:34.915Z,16.14
2022-09-11T19:44:03.798Z,16.08
2022-09-11T19:46:33.586Z,16.13
2022-09-11T19:49:08.940Z,16.03
2022-09-11T19:51:42.045Z,16.09
2022-09-11T19:54:11.929Z,16.13
2022-09-11T19:56:40.107Z,15.98
2022-09-11T19:59:08.499Z,16.01
2022-09-11T20:01:36.112Z,16.08
2022-09-11T20:04:03.903Z,15.86
2022-09-11T20:06:33.229Z,16.01
2022-09-11T20:11:50.666Z,15.81
2022-09-11T20:14:18.277Z,15.89
2022-09-11T20:16:45.844Z,15.66
2022-09-11T20:19:15.034Z,15.78
2022-09-11T20:21:43.072Z,15.69
2022-09-11T20:24:10.579Z,15.67
2022-09-11T20:26:38.162Z,15.64
2022-09-11T20:29:11.961Z,15.64
2022-09-11T20:31:48.667Z,15.55
2022-09-11T20:34:20.155Z,15.53
2022-09-11T20:36:48.283Z,15.49
2022-09-11T20:39:16.528Z,15.34
2022-09-11T20:41:44.627Z,15.30
2022-09-11T20:44:12.201Z,15.43
2022-09-11T20:46:40.481Z,15.36
2022-09-11T20:49:08.044Z,15.23
2022-09-11T20:51:35.585Z,15.18
2022-09-11T20:54:03.846Z,15.18
2022-09-11T20:56:31.623Z,15.14
2022-09-11T20:59:00.621Z,15.14
2022-09-11T21:01:32.578Z,15.07
2022-09-11T21:04:02.362Z,15.16
2022-09-11T21:06:31.653Z,14.99
2022-09-11T21:09:01.813Z,14.95
2022-09-11T21:11:30.633Z,14.95
2022-09-11T21:13:58.802Z,14.90
2022-09-11T21:16:26.630Z,14.93
2022-09-11T21:18:56.923Z,14.95
2022-09-11T21:21:26.138Z,14.87
2022-09-11T21:23:58.463Z,14.86
2022-09-11T21:26:28.586Z,14.87
2022-09-11T21:28:57.809Z,14.88
2022-09-11T21:31:26.129Z,14.77
2022-09-11T21:33:53.942Z,14.79
2022-09-11T21:36:21.411Z,14.68
2022-09-11T21:38:48.931Z,14.76
2022-09-11T21:41:16.554Z,14.68
2022-09-11T21:43:45.629Z,14.77
2022-09-11T21:46:13.595Z,14.86
2022-09-11T21:48:41.763Z,14.87
2022-09-11T21:51:20.296Z,15.23
2022-09-11T21:53:49.496Z,15.43
2022-09-11T21:56:26.661Z,15.66
2022-09-11T21:58:55.081Z,15.57
2022-09-11T22:01:25.015Z,15.51
2022-09-11T22:03:53.405Z,15.53
2022-09-11T22:06:24.506Z,15.38
2022-09-11T22:08:53.502Z,15.55
2022-09-11T22:11:21.200Z,15.30
2022-09-11T22:13:49.306Z,15.35
2022-09-11T22:16:19.352Z,15.16
2022-09-11T22:18:50.689Z,15.13
2022-09-11T22:21:18.570Z,15.08
2022-09-11T22:23:46.224Z,15.02
2022-09-11T22:26:17.455Z,14.95
2022-09-11T22:28:45.623Z,14.78
2022-09-11T22:31:23.870Z,14.82
2022-09-11T22:33:52.575Z,14.68
2022-09-11T22:36:23.623Z,14.83
2022-09-11T22:38:51.864Z,14.67
2022-09-11T22:41:20.333Z,14.67
2022-09-11T22:43:50.117Z,14.65
2022-09-11T22:46:20.681Z,14.68
2022-09-11T22:48:48.664Z,14.67
2022-09-11T22:51:16.733Z,14.84
2022-09-11T22:53:44.759Z,14.77
2022-09-11T22:56:13.897Z,14.73
2022-09-11T22:58:42.102Z,14.85
2022-09-11T23:01:12.215Z,14.90
2022-09-11T23:03:40.244Z,14.86
2022-09-11T23:06:28.461Z,14.70
2022-09-11T23:08:56.199Z,14.88
2022-09-11T23:11:29.106Z,14.82
2022-09-11T23:13:57.118Z,14.69
2022-09-11T23:16:28.196Z,14.62
2022-09-11T23:19:01.246Z,14.79
2022-09-11T23:21:31.023Z,14.66
2022-09-11T23:23:59.561Z,14.56
2022-09-11T23:26:28.795Z,14.57
2022-09-11T23:28:56.594Z,14.63
2022-09-11T23:31:26.573Z,14.47
2022-09-11T23:33:56.698Z,14.60
2022-09-11T23:36:25.321Z,14.57
2022-09-11T23:38:53.295Z,14.51
2022-09-11T23:41:21.635Z,14.32
2022-09-11T23:43:49.403Z,14.23
2022-09-11T23:46:17.382Z,14.38
2022-09-11T23:48:45.347Z,14.46
2022-09-11T23:51:13.418Z,14.55
2022-09-11T23:53:44.877Z,14.43
2022-09-11T23:56:17.321Z,14.57
2022-09-11T23:58:45.711Z,14.56
